sensor_id;sensor_type;location;lat;lon;timestamp;P1;durP1;ratioP1;P2;durP2;ratioP2
25153;SDS011;47555;51.038;6.280;2023-01-10T00:01:37;10.07;;;2.50;;
25153;SDS011;47555;51.038;6.280;2023-01-10T00:04:03;8.60;;;2.70;;
25153;SDS011;47555;51.038;6.280;2023-01-10T00:06:28;5.45;;;2.50;;
25153;SDS011;47555;51.038;6.280;2023-01-10T00:08:54;6.22;;;2.70;;
25153;SDS011;47555;51.038;6.280;2023-01-10T00:11:21;4.82;;;2.20;;
25153;SDS011;47555;51.038;6.280;2023-01-10T00:14:05;7.97;;;2.45;;
25153;SDS011;47555;51.038;6.280;2023-01-10T00:16:31;7.65;;;2.78;;
25153;SDS011;47555;51.038;6.280;2023-01-10T00:18:56;7.15;;;2.65;;
25153;SDS011;47555;51.038;6.280;2023-01-10T00:21:22;3.45;;;2.28;;
25153;SDS011;47555;51.038;6.280;2023-01-10T00:23:47;5.50;;;2.70;;
25153;SDS011;47555;51.038;6.280;2023-01-10T00:26:13;9.02;;;2.60;;
25153;SDS011;47555;51.038;6.280;2023-01-10T00:28:38;9.48;;;3.05;;
25153;SDS011;47555;51.038;6.280;2023-01-10T00:31:04;7.05;;;3.60;;
25153;SDS011;47555;51.038;6.280;2023-01-10T00:33:36;9.32;;;3.03;;
25153;SDS011;47555;51.038;6.280;2023-01-10T00:36:03;7.00;;;2.30;;
25153;SDS011;47555;51.038;6.280;2023-01-10T00:38:31;7.32;;;2.78;;
25153;SDS011;47555;51.038;6.280;2023-01-10T00:40:57;7.25;;;2.13;;
25153;SDS011;47555;51.038;6.280;2023-01-10T00:43:23;5.32;;;2.28;;
25153;SDS011;47555;51.038;6.280;2023-01-10T00:46:07;10.68;;;2.90;;
25153;SDS011;47555;51.038;6.280;2023-01-10T00:48:33;8.73;;;2.70;;
25153;SDS011;47555;51.038;6.280;2023-01-10T00:50:59;8.02;;;2.33;;
25153;SDS011;47555;51.038;6.280;2023-01-10T00:53:24;4.22;;;1.95;;
25153;SDS011;47555;51.038;6.280;2023-01-10T00:55:51;7.88;;;2.20;;
25153;SDS011;47555;51.038;6.280;2023-01-10T00:58:18;7.82;;;2.80;;
25153;SDS011;47555;51.038;6.280;2023-01-10T01:00:44;10.20;;;2.90;;
25153;SDS011;47555;51.038;6.280;2023-01-10T01:03:11;9.00;;;2.70;;
25153;SDS011;47555;51.038;6.280;2023-01-10T01:05:40;8.30;;;2.97;;
25153;SDS011;47555;51.038;6.280;2023-01-10T01:08:10;7.95;;;2.35;;
25153;SDS011;47555;51.038;6.280;2023-01-10T01:10:36;9.38;;;2.97;;
25153;SDS011;47555;51.038;6.280;2023-01-10T01:13:06;9.63;;;2.70;;
25153;SDS011;47555;51.038;6.280;2023-01-10T01:15:43;8.23;;;2.95;;
25153;SDS011;47555;51.038;6.280;2023-01-10T01:18:14;7.40;;;3.75;;
25153;SDS011;47555;51.038;6.280;2023-01-10T01:20:41;9.73;;;3.65;;
25153;SDS011;47555;51.038;6.280;2023-01-10T01:23:07;5.78;;;3.05;;
25153;SDS011;47555;51.038;6.280;2023-01-10T01:25:33;12.77;;;3.33;;
25153;SDS011;47555;51.038;6.280;2023-01-10T01:27:58;9.95;;;3.72;;
25153;SDS011;47555;51.038;6.280;2023-01-10T01:30:24;11.18;;;3.00;;
25153;SDS011;47555;51.038;6.280;2023-01-10T01:32:49;7.90;;;2.88;;
25153;SDS011;47555;51.038;6.280;2023-01-10T01:35:15;15.00;;;3.20;;
25153;SDS011;47555;51.038;6.280;2023-01-10T01:37:41;11.80;;;3.67;;
25153;SDS011;47555;51.038;6.280;2023-01-10T01:40:14;8.73;;;3.78;;
25153;SDS011;47555;51.038;6.280;2023-01-10T01:42:42;9.48;;;3.67;;
25153;SDS011;47555;51.038;6.280;2023-01-10T01:47:34;9.00;;;3.30;;
25153;SDS011;47555;51.038;6.280;2023-01-10T01:50:17;8.93;;;2.72;;
25153;SDS011;47555;51.038;6.280;2023-01-10T01:52:50;6.97;;;3.58;;
25153;SDS011;47555;51.038;6.280;2023-01-10T01:55:19;16.00;;;4.13;;
25153;SDS011;47555;51.038;6.280;2023-01-10T01:57:45;11.82;;;4.05;;
25153;SDS011;47555;51.038;6.280;2023-01-10T02:00:14;10.38;;;3.50;;
25153;SDS011;47555;51.038;6.280;2023-01-10T02:02:44;8.77;;;3.70;;
25153;SDS011;47555;51.038;6.280;2023-01-10T02:05:14;13.43;;;4.78;;
25153;SDS011;47555;51.038;6.280;2023-01-10T02:07:44;12.88;;;4.47;;
25153;SDS011;47555;51.038;6.280;2023-01-10T02:10:13;11.65;;;3.85;;
25153;SDS011;47555;51.038;6.280;2023-01-10T02:12:43;10.18;;;3.67;;
25153;SDS011;47555;51.038;6.280;2023-01-10T02:15:10;10.32;;;3.65;;
25153;SDS011;47555;51.038;6.280;2023-01-10T02:17:36;11.73;;;4.18;;
25153;SDS011;47555;51.038;6.280;2023-01-10T02:22:51;10.30;;;3.08;;
25153;SDS011;47555;51.038;6.280;2023-01-10T02:25:41;14.88;;;3.70;;
25153;SDS011;47555;51.038;6.280;2023-01-10T02:37:15;9.15;;;2.50;;
25153;SDS011;47555;51.038;6.280;2023-01-10T02:42:35;10.20;;;2.83;;
25153;SDS011;47555;51.038;6.280;2023-01-10T02:45:11;13.05;;;3.22;;
25153;SDS011;47555;51.038;6.280;2023-01-10T02:47:41;11.05;;;3.63;;
25153;SDS011;47555;51.038;6.280;2023-01-10T02:52:58;9.50;;;2.75;;
25153;SDS011;47555;51.038;6.280;2023-01-10T02:55:28;13.13;;;2.72;;
25153;SDS011;47555;51.038;6.280;2023-01-10T02:58:16;11.50;;;3.38;;
25153;SDS011;47555;51.038;6.280;2023-01-10T03:01:12;6.43;;;3.00;;
25153;SDS011;47555;51.038;6.280;2023-01-10T03:03:52;14.00;;;3.90;;
25153;SDS011;47555;51.038;6.280;2023-01-10T03:06:47;10.45;;;3.90;;
25153;SDS011;47555;51.038;6.280;2023-01-10T03:09:26;9.43;;;3.20;;
25153;SDS011;47555;51.038;6.280;2023-01-10T03:12:04;13.85;;;4.28;;
25153;SDS011;47555;51.038;6.280;2023-01-10T03:14:36;10.75;;;3.60;;
25153;SDS011;47555;51.038;6.280;2023-01-10T03:17:04;11.35;;;3.08;;
25153;SDS011;47555;51.038;6.280;2023-01-10T03:19:34;7.05;;;2.67;;
25153;SDS011;47555;51.038;6.280;2023-01-10T03:22:04;11.43;;;3.00;;
25153;SDS011;47555;51.038;6.280;2023-01-10T03:24:33;10.38;;;3.92;;
25153;SDS011;47555;51.038;6.280;2023-01-10T03:27:06;11.35;;;4.30;;
25153;SDS011;47555;51.038;6.280;2023-01-10T03:29:42;12.68;;;5.28;;
25153;SDS011;47555;51.038;6.280;2023-01-10T03:32:14;12.95;;;3.55;;
25153;SDS011;47555;51.038;6.280;2023-01-10T03:34:45;11.95;;;3.13;;
25153;SDS011;47555;51.038;6.280;2023-01-10T03:37:33;12.55;;;2.78;;
25153;SDS011;47555;51.038;6.280;2023-01-10T03:40:27;8.70;;;3.05;;
25153;SDS011;47555;51.038;6.280;2023-01-10T03:45:45;6.30;;;2.20;;
25153;SDS011;47555;51.038;6.280;2023-01-10T03:48:19;11.18;;;2.58;;
25153;SDS011;47555;51.038;6.280;2023-01-10T03:50:46;7.63;;;2.20;;
25153;SDS011;47555;51.038;6.280;2023-01-10T03:53:14;6.32;;;2.22;;
25153;SDS011;47555;51.038;6.280;2023-01-10T03:55:42;7.55;;;2.20;;
25153;SDS011;47555;51.038;6.280;2023-01-10T03:58:09;9.30;;;2.63;;
25153;SDS011;47555;51.038;6.280;2023-01-10T04:00:34;12.07;;;3.50;;
25153;SDS011;47555;51.038;6.280;2023-01-10T04:03:00;11.20;;;2.83;;
25153;SDS011;47555;51.038;6.280;2023-01-10T04:05:26;9.15;;;2.85;;
25153;SDS011;47555;51.038;6.280;2023-01-10T04:07:51;10.85;;;2.90;;
25153;SDS011;47555;51.038;6.280;2023-01-10T04:10:17;9.07;;;3.10;;
25153;SDS011;47555;51.038;6.280;2023-01-10T04:12:42;14.25;;;3.10;;
25153;SDS011;47555;51.038;6.280;2023-01-10T04:15:08;14.15;;;4.20;;
25153;SDS011;47555;51.038;6.280;2023-01-10T04:17:34;12.25;;;3.17;;
25153;SDS011;47555;51.038;6.280;2023-01-10T04:19:59;13.55;;;3.55;;
25153;SDS011;47555;51.038;6.280;2023-01-10T04:22:25;11.35;;;3.47;;
25153;SDS011;47555;51.038;6.280;2023-01-10T04:24:51;9.93;;;3.05;;
25153;SDS011;47555;51.038;6.280;2023-01-10T04:27:17;8.75;;;3.15;;
25153;SDS011;47555;51.038;6.280;2023-01-10T04:29:43;12.60;;;2.85;;
25153;SDS011;47555;51.038;6.280;2023-01-10T04:32:08;6.75;;;2.78;;
25153;SDS011;47555;51.038;6.280;2023-01-10T04:34:34;7.72;;;3.42;;
25153;SDS011;47555;51.038;6.280;2023-01-10T04:36:59;13.75;;;3.20;;
25153;SDS011;47555;51.038;6.280;2023-01-10T04:39:25;9.95;;;2.42;;
25153;SDS011;47555;51.038;6.280;2023-01-10T04:41:50;8.75;;;2.40;;
25153;SDS011;47555;51.038;6.280;2023-01-10T04:44:16;11.43;;;2.90;;
25153;SDS011;47555;51.038;6.280;2023-01-10T04:46:41;8.20;;;2.33;;
25153;SDS011;47555;51.038;6.280;2023-01-10T04:49:08;8.98;;;2.25;;
25153;SDS011;47555;51.038;6.280;2023-01-10T04:51:34;11.52;;;3.70;;
25153;SDS011;47555;51.038;6.280;2023-01-10T04:53:59;12.10;;;2.75;;
25153;SDS011;47555;51.038;6.280;2023-01-10T04:56:25;12.65;;;3.45;;
25153;SDS011;47555;51.038;6.280;2023-01-10T04:58:51;10.45;;;3.42;;
25153;SDS011;47555;51.038;6.280;2023-01-10T05:01:20;9.98;;;3.25;;
25153;SDS011;47555;51.038;6.280;2023-01-10T05:03:48;13.70;;;2.40;;
25153;SDS011;47555;51.038;6.280;2023-01-10T05:06:15;11.30;;;2.45;;
25153;SDS011;47555;51.038;6.280;2023-01-10T05:08:42;6.90;;;2.00;;
25153;SDS011;47555;51.038;6.280;2023-01-10T05:11:07;10.90;;;2.28;;
25153;SDS011;47555;51.038;6.280;2023-01-10T05:13:33;14.05;;;2.97;;
25153;SDS011;47555;51.038;6.280;2023-01-10T05:15:59;7.13;;;2.50;;
25153;SDS011;47555;51.038;6.280;2023-01-10T05:21:42;8.93;;;2.67;;
25153;SDS011;47555;51.038;6.280;2023-01-10T05:24:08;8.88;;;2.47;;
25153;SDS011;47555;51.038;6.280;2023-01-10T05:26:33;6.82;;;2.40;;
25153;SDS011;47555;51.038;6.280;2023-01-10T05:28:59;14.07;;;3.22;;
25153;SDS011;47555;51.038;6.280;2023-01-10T05:31:24;6.80;;;2.40;;
25153;SDS011;47555;51.038;6.280;2023-01-10T05:33:50;11.15;;;2.70;;
25153;SDS011;47555;51.038;6.280;2023-01-10T05:36:16;14.55;;;2.80;;
25153;SDS011;47555;51.038;6.280;2023-01-10T05:38:42;12.07;;;2.38;;
25153;SDS011;47555;51.038;6.280;2023-01-10T05:41:08;9.90;;;2.50;;
25153;SDS011;47555;51.038;6.280;2023-01-10T05:43:34;9.75;;;3.15;;
25153;SDS011;47555;51.038;6.280;2023-01-10T05:45:59;15.57;;;2.80;;
25153;SDS011;47555;51.038;6.280;2023-01-10T05:48:25;10.55;;;2.45;;
25153;SDS011;47555;51.038;6.280;2023-01-10T05:50:50;11.57;;;2.72;;
25153;SDS011;47555;51.038;6.280;2023-01-10T05:53:17;14.15;;;3.08;;
25153;SDS011;47555;51.038;6.280;2023-01-10T05:55:43;23.35;;;3.15;;
25153;SDS011;47555;51.038;6.280;2023-01-10T05:58:16;14.02;;;3.13;;
25153;SDS011;47555;51.038;6.280;2023-01-10T06:00:41;16.48;;;3.55;;
25153;SDS011;47555;51.038;6.280;2023-01-10T06:03:07;10.65;;;3.30;;
25153;SDS011;47555;51.038;6.280;2023-01-10T06:05:32;14.25;;;4.45;;
25153;SDS011;47555;51.038;6.280;2023-01-10T06:07:58;18.33;;;4.22;;
25153;SDS011;47555;51.038;6.280;2023-01-10T06:10:23;18.95;;;4.32;;
25153;SDS011;47555;51.038;6.280;2023-01-10T06:12:49;16.33;;;4.35;;
25153;SDS011;47555;51.038;6.280;2023-01-10T06:15:14;19.33;;;3.75;;
25153;SDS011;47555;51.038;6.280;2023-01-10T06:17:41;11.15;;;2.90;;
25153;SDS011;47555;51.038;6.280;2023-01-10T06:20:08;17.80;;;5.15;;
25153;SDS011;47555;51.038;6.280;2023-01-10T06:22:34;15.57;;;3.88;;
25153;SDS011;47555;51.038;6.280;2023-01-10T06:25:00;15.45;;;3.22;;
25153;SDS011;47555;51.038;6.280;2023-01-10T06:27:26;11.18;;;3.00;;
25153;SDS011;47555;51.038;6.280;2023-01-10T06:29:51;8.63;;;3.08;;
25153;SDS011;47555;51.038;6.280;2023-01-10T06:32:17;11.73;;;3.45;;
25153;SDS011;47555;51.038;6.280;2023-01-10T06:34:42;18.08;;;3.50;;
25153;SDS011;47555;51.038;6.280;2023-01-10T06:37:08;11.27;;;2.63;;
25153;SDS011;47555;51.038;6.280;2023-01-10T06:39:33;14.73;;;2.78;;
25153;SDS011;47555;51.038;6.280;2023-01-10T06:41:59;16.25;;;3.53;;
25153;SDS011;47555;51.038;6.280;2023-01-10T06:44:24;9.05;;;2.75;;
25153;SDS011;47555;51.038;6.280;2023-01-10T06:46:51;14.98;;;3.35;;
25153;SDS011;47555;51.038;6.280;2023-01-10T06:49:16;10.55;;;2.42;;
25153;SDS011;47555;51.038;6.280;2023-01-10T06:51:41;14.52;;;3.33;;
25153;SDS011;47555;51.038;6.280;2023-01-10T06:54:07;14.63;;;3.17;;
25153;SDS011;47555;51.038;6.280;2023-01-10T06:56:32;9.77;;;2.85;;
25153;SDS011;47555;51.038;6.280;2023-01-10T06:58:58;17.00;;;2.95;;
25153;SDS011;47555;51.038;6.280;2023-01-10T07:01:23;5.70;;;2.15;;
25153;SDS011;47555;51.038;6.280;2023-01-10T07:03:49;11.88;;;2.42;;
25153;SDS011;47555;51.038;6.280;2023-01-10T07:06:15;7.70;;;2.53;;
25153;SDS011;47555;51.038;6.280;2023-01-10T07:08:41;12.05;;;2.90;;
25153;SDS011;47555;51.038;6.280;2023-01-10T07:11:09;8.50;;;2.75;;
25153;SDS011;47555;51.038;6.280;2023-01-10T07:13:36;13.63;;;3.00;;
25153;SDS011;47555;51.038;6.280;2023-01-10T07:18:28;12.88;;;2.67;;
25153;SDS011;47555;51.038;6.280;2023-01-10T07:20:53;10.85;;;2.72;;
25153;SDS011;47555;51.038;6.280;2023-01-10T07:23:19;13.82;;;3.20;;
25153;SDS011;47555;51.038;6.280;2023-01-10T07:25:45;7.40;;;2.33;;
25153;SDS011;47555;51.038;6.280;2023-01-10T07:28:10;11.35;;;2.75;;
25153;SDS011;47555;51.038;6.280;2023-01-10T07:30:36;19.05;;;3.00;;
25153;SDS011;47555;51.038;6.280;2023-01-10T07:33:01;12.82;;;2.80;;
25153;SDS011;47555;51.038;6.280;2023-01-10T07:35:30;8.60;;;2.60;;
25153;SDS011;47555;51.038;6.280;2023-01-10T07:37:59;12.88;;;2.88;;
25153;SDS011;47555;51.038;6.280;2023-01-10T07:40:27;10.85;;;2.78;;
25153;SDS011;47555;51.038;6.280;2023-01-10T07:42:56;9.90;;;3.05;;
25153;SDS011;47555;51.038;6.280;2023-01-10T07:45:22;10.85;;;2.53;;
25153;SDS011;47555;51.038;6.280;2023-01-10T07:47:47;10.90;;;2.63;;
25153;SDS011;47555;51.038;6.280;2023-01-10T07:50:13;9.52;;;2.78;;
25153;SDS011;47555;51.038;6.280;2023-01-10T07:52:39;14.10;;;2.63;;
25153;SDS011;47555;51.038;6.280;2023-01-10T07:55:05;16.75;;;2.92;;
25153;SDS011;47555;51.038;6.280;2023-01-10T07:57:31;10.02;;;3.05;;
25153;SDS011;47555;51.038;6.280;2023-01-10T07:59:56;15.98;;;3.03;;
25153;SDS011;47555;51.038;6.280;2023-01-10T08:02:22;8.80;;;2.67;;
25153;SDS011;47555;51.038;6.280;2023-01-10T08:04:47;16.88;;;3.20;;
25153;SDS011;47555;51.038;6.280;2023-01-10T08:07:13;14.77;;;3.72;;
25153;SDS011;47555;51.038;6.280;2023-01-10T08:09:39;12.45;;;2.67;;
25153;SDS011;47555;51.038;6.280;2023-01-10T08:12:04;13.63;;;3.17;;
25153;SDS011;47555;51.038;6.280;2023-01-10T08:14:30;15.60;;;3.28;;
25153;SDS011;47555;51.038;6.280;2023-01-10T08:16:55;10.73;;;2.53;;
25153;SDS011;47555;51.038;6.280;2023-01-10T08:19:21;7.93;;;2.60;;
25153;SDS011;47555;51.038;6.280;2023-01-10T08:21:46;16.63;;;3.03;;
25153;SDS011;47555;51.038;6.280;2023-01-10T08:24:12;13.10;;;2.67;;
25153;SDS011;47555;51.038;6.280;2023-01-10T08:26:37;13.75;;;2.75;;
25153;SDS011;47555;51.038;6.280;2023-01-10T08:29:03;14.63;;;3.00;;
25153;SDS011;47555;51.038;6.280;2023-01-10T08:31:29;11.80;;;2.42;;
25153;SDS011;47555;51.038;6.280;2023-01-10T08:33:54;19.17;;;2.70;;
25153;SDS011;47555;51.038;6.280;2023-01-10T08:36:20;11.45;;;3.10;;
25153;SDS011;47555;51.038;6.280;2023-01-10T08:38:46;13.13;;;3.65;;
25153;SDS011;47555;51.038;6.280;2023-01-10T08:41:12;11.95;;;2.65;;
25153;SDS011;47555;51.038;6.280;2023-01-10T08:43:48;11.15;;;2.50;;
25153;SDS011;47555;51.038;6.280;2023-01-10T08:46:14;11.23;;;2.40;;
25153;SDS011;47555;51.038;6.280;2023-01-10T08:48:40;10.85;;;2.78;;
25153;SDS011;47555;51.038;6.280;2023-01-10T08:51:08;17.98;;;3.50;;
25153;SDS011;47555;51.038;6.280;2023-01-10T08:53:34;9.85;;;2.60;;
25153;SDS011;47555;51.038;6.280;2023-01-10T08:56:02;12.70;;;2.63;;
25153;SDS011;47555;51.038;6.280;2023-01-10T08:58:28;12.30;;;2.53;;
25153;SDS011;47555;51.038;6.280;2023-01-10T09:00:53;10.48;;;2.47;;
25153;SDS011;47555;51.038;6.280;2023-01-10T09:03:19;11.48;;;2.05;;
25153;SDS011;47555;51.038;6.280;2023-01-10T09:05:44;8.07;;;1.90;;
25153;SDS011;47555;51.038;6.280;2023-01-10T09:08:10;12.15;;;2.63;;
25153;SDS011;47555;51.038;6.280;2023-01-10T09:10:36;7.53;;;2.28;;
25153;SDS011;47555;51.038;6.280;2023-01-10T09:13:01;11.48;;;2.30;;
25153;SDS011;47555;51.038;6.280;2023-01-10T09:15:30;11.18;;;2.70;;
25153;SDS011;47555;51.038;6.280;2023-01-10T09:17:57;12.55;;;3.13;;
25153;SDS011;47555;51.038;6.280;2023-01-10T09:20:25;7.55;;;2.35;;
25153;SDS011;47555;51.038;6.280;2023-01-10T09:22:52;8.02;;;2.67;;
25153;SDS011;47555;51.038;6.280;2023-01-10T09:25:18;15.90;;;2.83;;
25153;SDS011;47555;51.038;6.280;2023-01-10T09:27:44;13.43;;;2.45;;
25153;SDS011;47555;51.038;6.280;2023-01-10T09:30:10;13.82;;;3.42;;
25153;SDS011;47555;51.038;6.280;2023-01-10T09:32:36;8.77;;;2.40;;
25153;SDS011;47555;51.038;6.280;2023-01-10T09:35:02;9.90;;;2.88;;
25153;SDS011;47555;51.038;6.280;2023-01-10T09:37:28;7.20;;;2.97;;
25153;SDS011;47555;51.038;6.280;2023-01-10T09:39:54;10.13;;;2.70;;
25153;SDS011;47555;51.038;6.280;2023-01-10T09:42:29;8.82;;;2.20;;
25153;SDS011;47555;51.038;6.280;2023-01-10T09:45:14;10.60;;;2.42;;
25153;SDS011;47555;51.038;6.280;2023-01-10T09:47:47;9.10;;;2.20;;
25153;SDS011;47555;51.038;6.280;2023-01-10T09:50:27;10.40;;;2.45;;
25153;SDS011;47555;51.038;6.280;2023-01-10T09:57:50;9.18;;;2.35;;
25153;SDS011;47555;51.038;6.280;2023-01-10T10:00:20;7.97;;;2.70;;
25153;SDS011;47555;51.038;6.280;2023-01-10T10:02:49;15.70;;;2.10;;
25153;SDS011;47555;51.038;6.280;2023-01-10T10:05:26;13.75;;;2.60;;
25153;SDS011;47555;51.038;6.280;2023-01-10T10:07:57;10.38;;;2.47;;
25153;SDS011;47555;51.038;6.280;2023-01-10T10:10:27;11.32;;;2.42;;
25153;SDS011;47555;51.038;6.280;2023-01-10T10:26:34;13.63;;;3.05;;
25153;SDS011;47555;51.038;6.280;2023-01-10T10:31:56;16.33;;;3.42;;
25153;SDS011;47555;51.038;6.280;2023-01-10T10:34:47;14.40;;;2.75;;
25153;SDS011;47555;51.038;6.280;2023-01-10T10:37:27;16.98;;;3.38;;
25153;SDS011;47555;51.038;6.280;2023-01-10T10:40:10;9.02;;;2.45;;
25153;SDS011;47555;51.038;6.280;2023-01-10T10:45:18;6.07;;;1.75;;
25153;SDS011;47555;51.038;6.280;2023-01-10T10:48:30;7.15;;;2.47;;
25153;SDS011;47555;51.038;6.280;2023-01-10T10:50:39;13.07;;;2.90;;
25153;SDS011;47555;51.038;6.280;2023-01-10T10:53:14;11.55;;;2.30;;
25153;SDS011;47555;51.038;6.280;2023-01-10T10:55:40;7.32;;;2.78;;
25153;SDS011;47555;51.038;6.280;2023-01-10T10:58:06;18.20;;;2.83;;
25153;SDS011;47555;51.038;6.280;2023-01-10T11:00:34;10.27;;;2.50;;
25153;SDS011;47555;51.038;6.280;2023-01-10T11:03:04;14.35;;;3.03;;
25153;SDS011;47555;51.038;6.280;2023-01-10T11:05:41;6.70;;;2.65;;
25153;SDS011;47555;51.038;6.280;2023-01-10T11:08:10;10.10;;;2.45;;
25153;SDS011;47555;51.038;6.280;2023-01-10T11:10:37;13.35;;;3.13;;
25153;SDS011;47555;51.038;6.280;2023-01-10T11:15:41;8.10;;;2.28;;
25153;SDS011;47555;51.038;6.280;2023-01-10T11:20:53;10.00;;;2.30;;
25153;SDS011;47555;51.038;6.280;2023-01-10T11:23:35;15.43;;;2.33;;
25153;SDS011;47555;51.038;6.280;2023-01-10T11:26:09;11.38;;;2.83;;
25153;SDS011;47555;51.038;6.280;2023-01-10T11:29:03;11.73;;;2.63;;
25153;SDS011;47555;51.038;6.280;2023-01-10T11:31:32;10.52;;;2.63;;
25153;SDS011;47555;51.038;6.280;2023-01-10T11:34:00;11.57;;;2.53;;
25153;SDS011;47555;51.038;6.280;2023-01-10T11:36:28;12.65;;;2.58;;
25153;SDS011;47555;51.038;6.280;2023-01-10T11:39:28;12.80;;;2.45;;
25153;SDS011;47555;51.038;6.280;2023-01-10T11:41:55;14.25;;;2.35;;
25153;SDS011;47555;51.038;6.280;2023-01-10T11:46:51;9.60;;;2.20;;
25153;SDS011;47555;51.038;6.280;2023-01-10T11:49:26;8.38;;;1.90;;
25153;SDS011;47555;51.038;6.280;2023-01-10T11:54:47;13.13;;;2.65;;
25153;SDS011;47555;51.038;6.280;2023-01-10T11:57:17;12.43;;;2.70;;
25153;SDS011;47555;51.038;6.280;2023-01-10T11:59:49;13.47;;;3.00;;
25153;SDS011;47555;51.038;6.280;2023-01-10T12:02:42;13.00;;;2.60;;
25153;SDS011;47555;51.038;6.280;2023-01-10T12:05:11;9.65;;;2.85;;
25153;SDS011;47555;51.038;6.280;2023-01-10T12:07:52;8.05;;;2.42;;
25153;SDS011;47555;51.038;6.280;2023-01-10T12:10:22;11.65;;;2.53;;
25153;SDS011;47555;51.038;6.280;2023-01-10T12:12:56;9.10;;;2.50;;
25153;SDS011;47555;51.038;6.280;2023-01-10T12:15:28;11.88;;;2.00;;
25153;SDS011;47555;51.038;6.280;2023-01-10T12:17:55;14.25;;;2.85;;
25153;SDS011;47555;51.038;6.280;2023-01-10T12:20:24;10.95;;;2.20;;
25153;SDS011;47555;51.038;6.280;2023-01-10T12:23:26;12.20;;;1.95;;
25153;SDS011;47555;51.038;6.280;2023-01-10T12:25:45;11.18;;;2.15;;
25153;SDS011;47555;51.038;6.280;2023-01-10T12:28:22;7.85;;;2.25;;
25153;SDS011;47555;51.038;6.280;2023-01-10T12:30:52;13.43;;;3.05;;
25153;SDS011;47555;51.038;6.280;2023-01-10T12:33:22;7.93;;;1.80;;
25153;SDS011;47555;51.038;6.280;2023-01-10T12:36:03;8.90;;;1.90;;
25153;SDS011;47555;51.038;6.280;2023-01-10T12:38:41;12.32;;;2.90;;
25153;SDS011;47555;51.038;6.280;2023-01-10T12:41:32;8.77;;;2.38;;
25153;SDS011;47555;51.038;6.280;2023-01-10T12:47:08;8.68;;;2.05;;
25153;SDS011;47555;51.038;6.280;2023-01-10T12:49:51;14.73;;;2.17;;
25153;SDS011;47555;51.038;6.280;2023-01-10T12:52:23;8.98;;;2.20;;
25153;SDS011;47555;51.038;6.280;2023-01-10T12:55:13;11.57;;;2.58;;
25153;SDS011;47555;51.038;6.280;2023-01-10T12:57:40;7.40;;;1.95;;
25153;SDS011;47555;51.038;6.280;2023-01-10T13:00:14;8.07;;;1.90;;
25153;SDS011;47555;51.038;6.280;2023-01-10T13:03:19;9.60;;;2.50;;
25153;SDS011;47555;51.038;6.280;2023-01-10T13:05:48;9.48;;;1.98;;
25153;SDS011;47555;51.038;6.280;2023-01-10T13:08:16;8.13;;;2.28;;
25153;SDS011;47555;51.038;6.280;2023-01-10T13:10:45;13.05;;;2.90;;
25153;SDS011;47555;51.038;6.280;2023-01-10T13:16:03;8.95;;;2.70;;
25153;SDS011;47555;51.038;6.280;2023-01-10T13:21:35;10.50;;;2.78;;
25153;SDS011;47555;51.038;6.280;2023-01-10T13:29:25;10.90;;;1.90;;
25153;SDS011;47555;51.038;6.280;2023-01-10T13:31:54;10.25;;;2.40;;
25153;SDS011;47555;51.038;6.280;2023-01-10T13:34:31;7.90;;;2.42;;
25153;SDS011;47555;51.038;6.280;2023-01-10T13:39:53;8.70;;;2.30;;
25153;SDS011;47555;51.038;6.280;2023-01-10T13:45:24;9.95;;;2.83;;
25153;SDS011;47555;51.038;6.280;2023-01-10T13:52:49;9.90;;;2.42;;
25153;SDS011;47555;51.038;6.280;2023-01-10T13:55:23;9.50;;;2.42;;
25153;SDS011;47555;51.038;6.280;2023-01-10T13:57:50;6.22;;;2.60;;
25153;SDS011;47555;51.038;6.280;2023-01-10T14:00:41;12.18;;;2.88;;
25153;SDS011;47555;51.038;6.280;2023-01-10T14:08:54;9.05;;;2.22;;
25153;SDS011;47555;51.038;6.280;2023-01-10T14:14:12;6.82;;;2.25;;
25153;SDS011;47555;51.038;6.280;2023-01-10T14:16:47;8.90;;;1.75;;
25153;SDS011;47555;51.038;6.280;2023-01-10T14:19:24;8.25;;;2.00;;
25153;SDS011;47555;51.038;6.280;2023-01-10T14:21:55;9.45;;;2.08;;
25153;SDS011;47555;51.038;6.280;2023-01-10T14:24:34;10.00;;;2.08;;
25153;SDS011;47555;51.038;6.280;2023-01-10T14:27:15;13.95;;;2.28;;
25153;SDS011;47555;51.038;6.280;2023-01-10T14:29:53;6.05;;;2.22;;
25153;SDS011;47555;51.038;6.280;2023-01-10T14:32:29;9.52;;;2.00;;
25153;SDS011;47555;51.038;6.280;2023-01-10T14:35:02;8.70;;;2.72;;
25153;SDS011;47555;51.038;6.280;2023-01-10T14:37:31;11.40;;;2.70;;
25153;SDS011;47555;51.038;6.280;2023-01-10T14:40:05;9.27;;;2.38;;
25153;SDS011;47555;51.038;6.280;2023-01-10T14:42:43;7.78;;;1.73;;
25153;SDS011;47555;51.038;6.280;2023-01-10T14:45:29;8.15;;;2.22;;
25153;SDS011;47555;51.038;6.280;2023-01-10T14:48:25;7.80;;;2.25;;
25153;SDS011;47555;51.038;6.280;2023-01-10T14:53:42;10.40;;;2.15;;
25153;SDS011;47555;51.038;6.280;2023-01-10T14:56:17;5.68;;;1.70;;
25153;SDS011;47555;51.038;6.280;2023-01-10T14:58:44;6.80;;;2.00;;
25153;SDS011;47555;51.038;6.280;2023-01-10T15:01:10;6.90;;;2.13;;
25153;SDS011;47555;51.038;6.280;2023-01-10T15:03:38;12.50;;;2.17;;
25153;SDS011;47555;51.038;6.280;2023-01-10T15:06:10;10.02;;;1.75;;
25153;SDS011;47555;51.038;6.280;2023-01-10T15:08:35;5.40;;;1.98;;
25153;SDS011;47555;51.038;6.280;2023-01-10T15:11:02;8.13;;;2.33;;
25153;SDS011;47555;51.038;6.280;2023-01-10T15:13:30;10.68;;;1.90;;
25153;SDS011;47555;51.038;6.280;2023-01-10T15:16:00;9.05;;;2.45;;
25153;SDS011;47555;51.038;6.280;2023-01-10T15:18:36;13.38;;;2.80;;
25153;SDS011;47555;51.038;6.280;2023-01-10T15:21:09;10.18;;;2.30;;
25153;SDS011;47555;51.038;6.280;2023-01-10T15:23:37;7.95;;;1.95;;
25153;SDS011;47555;51.038;6.280;2023-01-10T15:26:06;5.25;;;1.77;;
25153;SDS011;47555;51.038;6.280;2023-01-10T15:28:34;7.30;;;2.20;;
25153;SDS011;47555;51.038;6.280;2023-01-10T15:31:02;6.93;;;1.67;;
25153;SDS011;47555;51.038;6.280;2023-01-10T15:33:30;7.78;;;3.45;;
25153;SDS011;47555;51.038;6.280;2023-01-10T15:36:04;8.23;;;2.55;;
25153;SDS011;47555;51.038;6.280;2023-01-10T15:38:41;7.10;;;1.50;;
25153;SDS011;47555;51.038;6.280;2023-01-10T15:41:09;7.32;;;2.20;;
25153;SDS011;47555;51.038;6.280;2023-01-10T15:43:42;4.88;;;1.27;;
25153;SDS011;47555;51.038;6.280;2023-01-10T15:46:16;7.18;;;1.80;;
25153;SDS011;47555;51.038;6.280;2023-01-10T15:48:52;6.00;;;2.08;;
25153;SDS011;47555;51.038;6.280;2023-01-10T15:51:36;3.50;;;1.25;;
25153;SDS011;47555;51.038;6.280;2023-01-10T15:56:47;6.90;;;2.15;;
25153;SDS011;47555;51.038;6.280;2023-01-10T15:59:37;5.22;;;2.00;;
25153;SDS011;47555;51.038;6.280;2023-01-10T16:07:05;5.68;;;2.33;;
25153;SDS011;47555;51.038;6.280;2023-01-10T16:09:51;5.72;;;1.85;;
25153;SDS011;47555;51.038;6.280;2023-01-10T16:12:22;3.70;;;1.50;;
25153;SDS011;47555;51.038;6.280;2023-01-10T16:15:16;2.97;;;1.45;;
25153;SDS011;47555;51.038;6.280;2023-01-10T16:17:44;3.35;;;1.40;;
25153;SDS011;47555;51.038;6.280;2023-01-10T16:20:11;4.03;;;1.60;;
25153;SDS011;47555;51.038;6.280;2023-01-10T16:22:41;2.55;;;1.25;;
25153;SDS011;47555;51.038;6.280;2023-01-10T16:25:15;4.25;;;1.30;;
25153;SDS011;47555;51.038;6.280;2023-01-10T16:27:46;5.32;;;1.38;;
25153;SDS011;47555;51.038;6.280;2023-01-10T16:30:31;4.75;;;1.50;;
25153;SDS011;47555;51.038;6.280;2023-01-10T16:32:58;4.75;;;1.25;;
25153;SDS011;47555;51.038;6.280;2023-01-10T16:35:26;5.80;;;2.20;;
25153;SDS011;47555;51.038;6.280;2023-01-10T16:37:55;4.75;;;1.85;;
25153;SDS011;47555;51.038;6.280;2023-01-10T16:40:27;6.15;;;2.80;;
25153;SDS011;47555;51.038;6.280;2023-01-10T16:42:57;6.18;;;2.80;;
25153;SDS011;47555;51.038;6.280;2023-01-10T16:45:41;6.50;;;2.00;;